sensor_id;sensor_type;location;lat;lon;timestamp;P1;durP1;ratioP1;P2;durP2;ratioP2
51298;SDS011;37382;45.192;9.790;2022-12-10T05:10:10;66.07;;;38.00;;
51298;SDS011;37382;45.192;9.790;2022-12-10T05:15:19;60.80;;;36.22;;
51298;SDS011;37382;45.192;9.790;2022-12-10T05:17:47;64.72;;;38.67;;
51298;SDS011;37382;45.192;9.790;2022-12-10T05:20:14;57.30;;;37.08;;
51298;SDS011;37382;45.192;9.790;2022-12-10T05:22:42;63.92;;;37.38;;
51298;SDS011;37382;45.192;9.790;2022-12-10T05:25:28;61.28;;;37.67;;
51298;SDS011;37382;45.192;9.790;2022-12-10T05:27:55;63.92;;;36.45;;
51298;SDS011;37382;45.192;9.790;2022-12-10T05:30:22;62.10;;;37.35;;
51298;SDS011;37382;45.192;9.790;2022-12-10T05:32:49;60.25;;;37.22;;
51298;SDS011;37382;45.192;9.790;2022-12-10T05:35:17;61.17;;;37.65;;
51298;SDS011;37382;45.192;9.790;2022-12-10T05:37:44;61.22;;;38.25;;
51298;SDS011;37382;45.192;9.790;2022-12-10T05:40:12;62.78;;;37.47;;
51298;SDS011;37382;45.192;9.790;2022-12-10T05:42:39;59.00;;;36.20;;
51298;SDS011;37382;45.192;9.790;2022-12-10T05:45:06;62.65;;;37.45;;
51298;SDS011;37382;45.192;9.790;2022-12-10T05:47:35;58.97;;;36.92;;
51298;SDS011;37382;45.192;9.790;2022-12-10T05:50:03;59.65;;;37.50;;
51298;SDS011;37382;45.192;9.790;2022-12-10T05:52:31;63.47;;;36.83;;
51298;SDS011;37382;45.192;9.790;2022-12-10T05:54:59;61.70;;;37.35;;
51298;SDS011;37382;45.192;9.790;2022-12-10T05:57:26;63.53;;;36.75;;
51298;SDS011;37382;45.192;9.790;2022-12-10T05:59:54;64.47;;;37.60;;
51298;SDS011;37382;45.192;9.790;2022-12-10T06:02:22;60.35;;;36.13;;
51298;SDS011;37382;45.192;9.790;2022-12-10T06:04:49;61.25;;;35.53;;
51298;SDS011;37382;45.192;9.790;2022-12-10T06:07:17;62.05;;;35.40;;
51298;SDS011;37382;45.192;9.790;2022-12-10T06:09:44;65.15;;;38.00;;
51298;SDS011;37382;45.192;9.790;2022-12-10T06:12:12;60.05;;;36.05;;
51298;SDS011;37382;45.192;9.790;2022-12-10T06:14:39;63.25;;;36.60;;
51298;SDS011;37382;45.192;9.790;2022-12-10T06:17:06;61.08;;;36.30;;
51298;SDS011;37382;45.192;9.790;2022-12-10T06:19:34;65.60;;;37.92;;
51298;SDS011;37382;45.192;9.790;2022-12-10T06:22:01;65.10;;;35.95;;
51298;SDS011;37382;45.192;9.790;2022-12-10T06:24:29;61.15;;;35.92;;
51298;SDS011;37382;45.192;9.790;2022-12-10T06:26:57;60.33;;;35.33;;
51298;SDS011;37382;45.192;9.790;2022-12-10T06:29:24;60.28;;;35.22;;
51298;SDS011;37382;45.192;9.790;2022-12-10T06:31:51;62.85;;;37.70;;
51298;SDS011;37382;45.192;9.790;2022-12-10T06:34:19;57.85;;;35.25;;
51298;SDS011;37382;45.192;9.790;2022-12-10T06:36:46;57.40;;;34.08;;
51298;SDS011;37382;45.192;9.790;2022-12-10T06:39:13;65.20;;;37.53;;
51298;SDS011;37382;45.192;9.790;2022-12-10T06:41:41;69.05;;;41.22;;
51298;SDS011;37382;45.192;9.790;2022-12-10T06:44:12;74.37;;;42.43;;
51298;SDS011;37382;45.192;9.790;2022-12-10T06:46:40;71.45;;;42.15;;
51298;SDS011;37382;45.192;9.790;2022-12-10T06:49:08;66.68;;;38.65;;
51298;SDS011;37382;45.192;9.790;2022-12-10T06:51:35;72.15;;;40.92;;
51298;SDS011;37382;45.192;9.790;2022-12-10T06:54:02;73.85;;;40.40;;
51298;SDS011;37382;45.192;9.790;2022-12-10T06:56:30;65.10;;;36.70;;
51298;SDS011;37382;45.192;9.790;2022-12-10T06:58:58;63.85;;;35.60;;
51298;SDS011;37382;45.192;9.790;2022-12-10T07:01:25;64.22;;;35.97;;
51298;SDS011;37382;45.192;9.790;2022-12-10T07:03:54;65.28;;;37.03;;
51298;SDS011;37382;45.192;9.790;2022-12-10T07:06:23;64.25;;;37.33;;
51298;SDS011;37382;45.192;9.790;2022-12-10T07:08:52;62.83;;;36.35;;
51298;SDS011;37382;45.192;9.790;2022-12-10T07:11:21;63.22;;;35.72;;
51298;SDS011;37382;45.192;9.790;2022-12-10T07:13:49;66.80;;;36.42;;
51298;SDS011;37382;45.192;9.790;2022-12-10T07:16:21;65.07;;;35.97;;
51298;SDS011;37382;45.192;9.790;2022-12-10T07:18:51;69.25;;;37.30;;
51298;SDS011;37382;45.192;9.790;2022-12-10T07:23:48;69.30;;;38.63;;
51298;SDS011;37382;45.192;9.790;2022-12-10T07:26:16;69.68;;;38.38;;
51298;SDS011;37382;45.192;9.790;2022-12-10T07:28:44;66.07;;;37.00;;
51298;SDS011;37382;45.192;9.790;2022-12-10T07:31:20;68.60;;;37.80;;
51298;SDS011;37382;45.192;9.790;2022-12-10T07:33:49;66.75;;;37.45;;
51298;SDS011;37382;45.192;9.790;2022-12-10T07:36:18;65.43;;;36.42;;
51298;SDS011;37382;45.192;9.790;2022-12-10T07:38:50;67.95;;;37.47;;
51298;SDS011;37382;45.192;9.790;2022-12-10T07:43:50;63.88;;;35.90;;
51298;SDS011;37382;45.192;9.790;2022-12-10T07:46:19;67.03;;;35.90;;
51298;SDS011;37382;45.192;9.790;2022-12-10T07:48:49;63.63;;;36.17;;
51298;SDS011;37382;45.192;9.790;2022-12-10T07:51:18;68.75;;;37.67;;
51298;SDS011;37382;45.192;9.790;2022-12-10T07:53:48;67.22;;;37.35;;
51298;SDS011;37382;45.192;9.790;2022-12-10T07:56:18;68.18;;;37.67;;
51298;SDS011;37382;45.192;9.790;2022-12-10T07:58:46;66.07;;;36.90;;
51298;SDS011;37382;45.192;9.790;2022-12-10T08:01:18;67.05;;;38.08;;
51298;SDS011;37382;45.192;9.790;2022-12-10T08:03:52;66.13;;;38.15;;
51298;SDS011;37382;45.192;9.790;2022-12-10T08:06:23;68.85;;;38.88;;
51298;SDS011;37382;45.192;9.790;2022-12-10T08:08:52;64.35;;;36.92;;
51298;SDS011;37382;45.192;9.790;2022-12-10T08:11:21;67.85;;;37.22;;
51298;SDS011;37382;45.192;9.790;2022-12-10T08:13:49;61.88;;;38.13;;
51298;SDS011;37382;45.192;9.790;2022-12-10T08:16:23;69.05;;;38.50;;
51298;SDS011;37382;45.192;9.790;2022-12-10T08:18:57;67.68;;;38.53;;
51298;SDS011;37382;45.192;9.790;2022-12-10T08:21:27;68.20;;;38.58;;
51298;SDS011;37382;45.192;9.790;2022-12-10T08:23:56;71.10;;;39.65;;
51298;SDS011;37382;45.192;9.790;2022-12-10T08:26:31;68.80;;;38.05;;
51298;SDS011;37382;45.192;9.790;2022-12-10T08:29:00;67.68;;;36.78;;
51298;SDS011;37382;45.192;9.790;2022-12-10T08:31:28;68.72;;;37.38;;
51298;SDS011;37382;45.192;9.790;2022-12-10T08:34:04;63.60;;;34.80;;
51298;SDS011;37382;45.192;9.790;2022-12-10T08:36:38;64.25;;;36.47;;
51298;SDS011;37382;45.192;9.790;2022-12-10T08:39:05;63.90;;;36.10;;
51298;SDS011;37382;45.192;9.790;2022-12-10T08:41:33;70.18;;;38.00;;
51298;SDS011;37382;45.192;9.790;2022-12-10T08:44:00;65.90;;;36.53;;
51298;SDS011;37382;45.192;9.790;2022-12-10T08:46:28;66.47;;;36.90;;
51298;SDS011;37382;45.192;9.790;2022-12-10T08:48:57;70.13;;;38.20;;
51298;SDS011;37382;45.192;9.790;2022-12-10T08:51:25;75.70;;;37.72;;
51298;SDS011;37382;45.192;9.790;2022-12-10T08:53:53;66.55;;;35.55;;
51298;SDS011;37382;45.192;9.790;2022-12-10T08:56:21;69.32;;;36.28;;
51298;SDS011;37382;45.192;9.790;2022-12-10T08:58:48;67.45;;;36.08;;
51298;SDS011;37382;45.192;9.790;2022-12-10T09:01:16;64.28;;;35.92;;
51298;SDS011;37382;45.192;9.790;2022-12-10T09:03:45;70.10;;;36.25;;
51298;SDS011;37382;45.192;9.790;2022-12-10T09:06:14;66.60;;;36.28;;
51298;SDS011;37382;45.192;9.790;2022-12-10T09:08:43;63.88;;;34.53;;
51298;SDS011;37382;45.192;9.790;2022-12-10T09:11:15;71.13;;;38.15;;
51298;SDS011;37382;45.192;9.790;2022-12-10T09:13:44;63.83;;;35.75;;
51298;SDS011;37382;45.192;9.790;2022-12-10T09:16:12;66.10;;;37.30;;
51298;SDS011;37382;45.192;9.790;2022-12-10T09:18:39;65.63;;;36.35;;
51298;SDS011;37382;45.192;9.790;2022-12-10T09:21:08;65.55;;;36.88;;
51298;SDS011;37382;45.192;9.790;2022-12-10T09:23:40;61.78;;;34.03;;
51298;SDS011;37382;45.192;9.790;2022-12-10T09:26:25;67.22;;;37.78;;
51298;SDS011;37382;45.192;9.790;2022-12-10T09:28:53;76.03;;;39.90;;
51298;SDS011;37382;45.192;9.790;2022-12-10T09:31:21;68.78;;;37.15;;
51298;SDS011;37382;45.192;9.790;2022-12-10T09:33:50;66.43;;;37.08;;
51298;SDS011;37382;45.192;9.790;2022-12-10T09:36:19;69.10;;;36.47;;
51298;SDS011;37382;45.192;9.790;2022-12-10T09:38:48;66.53;;;37.92;;
51298;SDS011;37382;45.192;9.790;2022-12-10T09:46:55;69.82;;;36.65;;
51298;SDS011;37382;45.192;9.790;2022-12-10T09:52:08;68.75;;;37.25;;
51298;SDS011;37382;45.192;9.790;2022-12-10T09:54:43;70.60;;;38.45;;
51298;SDS011;37382;45.192;9.790;2022-12-10T09:57:26;69.90;;;39.45;;
51298;SDS011;37382;45.192;9.790;2022-12-10T10:00:05;72.05;;;37.20;;
51298;SDS011;37382;45.192;9.790;2022-12-10T10:02:44;71.90;;;37.60;;
51298;SDS011;37382;45.192;9.790;2022-12-10T10:07:48;71.03;;;39.53;;
51298;SDS011;37382;45.192;9.790;2022-12-10T10:15:38;77.13;;;38.50;;
51298;SDS011;37382;45.192;9.790;2022-12-10T10:20:49;76.32;;;39.42;;
51298;SDS011;37382;45.192;9.790;2022-12-10T10:23:17;71.05;;;40.00;;
51298;SDS011;37382;45.192;9.790;2022-12-10T10:25:44;69.45;;;35.22;;
51298;SDS011;37382;45.192;9.790;2022-12-10T10:28:15;65.68;;;34.67;;
51298;SDS011;37382;45.192;9.790;2022-12-10T10:30:46;64.45;;;35.20;;
51298;SDS011;37382;45.192;9.790;2022-12-10T10:33:15;63.80;;;36.92;;
51298;SDS011;37382;45.192;9.790;2022-12-10T10:35:49;72.07;;;36.85;;
51298;SDS011;37382;45.192;9.790;2022-12-10T10:38:23;66.85;;;36.55;;
51298;SDS011;37382;45.192;9.790;2022-12-10T10:40:59;67.57;;;35.00;;
51298;SDS011;37382;45.192;9.790;2022-12-10T10:43:32;60.92;;;34.88;;
51298;SDS011;37382;45.192;9.790;2022-12-10T10:46:01;62.45;;;35.30;;
51298;SDS011;37382;45.192;9.790;2022-12-10T10:48:32;64.43;;;34.27;;
51298;SDS011;37382;45.192;9.790;2022-12-10T10:53:41;68.38;;;34.60;;
51298;SDS011;37382;45.192;9.790;2022-12-10T10:58:45;55.17;;;31.48;;
51298;SDS011;37382;45.192;9.790;2022-12-10T11:01:16;56.70;;;31.58;;
51298;SDS011;37382;45.192;9.790;2022-12-10T11:03:45;63.72;;;34.45;;
51298;SDS011;37382;45.192;9.790;2022-12-10T11:06:20;58.05;;;32.83;;
51298;SDS011;37382;45.192;9.790;2022-12-10T11:08:49;63.50;;;37.00;;
51298;SDS011;37382;45.192;9.790;2022-12-10T11:11:22;59.30;;;33.42;;
51298;SDS011;37382;45.192;9.790;2022-12-10T11:14:12;64.13;;;35.92;;
51298;SDS011;37382;45.192;9.790;2022-12-10T11:16:50;69.00;;;38.05;;
51298;SDS011;37382;45.192;9.790;2022-12-10T11:19:26;61.10;;;32.35;;
51298;SDS011;37382;45.192;9.790;2022-12-10T11:21:54;60.50;;;32.15;;
51298;SDS011;37382;45.192;9.790;2022-12-10T11:24:21;65.00;;;36.03;;
51298;SDS011;37382;45.192;9.790;2022-12-10T11:38:03;57.90;;;32.03;;
51298;SDS011;37382;45.192;9.790;2022-12-10T11:44:06;61.35;;;34.90;;
51298;SDS011;37382;45.192;9.790;2022-12-10T11:46:48;56.90;;;32.55;;
51298;SDS011;37382;45.192;9.790;2022-12-10T11:49:41;53.55;;;30.27;;
51298;SDS011;37382;45.192;9.790;2022-12-10T11:52:22;50.40;;;30.83;;
51298;SDS011;37382;45.192;9.790;2022-12-10T12:00:39;58.97;;;33.50;;
51298;SDS011;37382;45.192;9.790;2022-12-10T12:09:40;51.55;;;29.75;;
51298;SDS011;37382;45.192;9.790;2022-12-10T12:12:13;53.17;;;29.25;;
51298;SDS011;37382;45.192;9.790;2022-12-10T12:14:55;47.90;;;28.45;;
51298;SDS011;37382;45.192;9.790;2022-12-10T12:17:32;46.78;;;29.23;;
51298;SDS011;37382;45.192;9.790;2022-12-10T12:23:04;49.47;;;30.50;;
51298;SDS011;37382;45.192;9.790;2022-12-10T12:25:46;51.53;;;31.65;;
51298;SDS011;37382;45.192;9.790;2022-12-10T12:28:21;54.90;;;31.95;;
51298;SDS011;37382;45.192;9.790;2022-12-10T12:30:57;53.08;;;31.60;;
51298;SDS011;37382;45.192;9.790;2022-12-10T12:36:39;52.85;;;31.83;;
51298;SDS011;37382;45.192;9.790;2022-12-10T12:44:33;52.90;;;31.80;;
51298;SDS011;37382;45.192;9.790;2022-12-10T12:47:15;56.08;;;32.05;;
51298;SDS011;37382;45.192;9.790;2022-12-10T12:49:49;50.47;;;31.27;;
51298;SDS011;37382;45.192;9.790;2022-12-10T12:52:34;49.75;;;30.90;;
51298;SDS011;37382;45.192;9.790;2022-12-10T12:55:17;52.42;;;31.52;;
51298;SDS011;37382;45.192;9.790;2022-12-10T13:03:53;54.10;;;32.53;;
51298;SDS011;37382;45.192;9.790;2022-12-10T13:06:31;54.75;;;32.40;;
51298;SDS011;37382;45.192;9.790;2022-12-10T13:11:44;56.13;;;32.55;;
51298;SDS011;37382;45.192;9.790;2022-12-10T13:14:36;59.30;;;34.58;;
51298;SDS011;37382;45.192;9.790;2022-12-10T13:17:37;51.63;;;32.63;;
51298;SDS011;37382;45.192;9.790;2022-12-10T13:22:59;52.70;;;31.92;;
51298;SDS011;37382;45.192;9.790;2022-12-10T13:41:30;43.13;;;28.33;;
51298;SDS011;37382;45.192;9.790;2022-12-10T13:44:46;47.10;;;29.40;;
51298;SDS011;37382;45.192;9.790;2022-12-10T13:49:49;48.00;;;28.90;;
51298;SDS011;37382;45.192;9.790;2022-12-10T13:52:32;51.85;;;31.52;;
51298;SDS011;37382;45.192;9.790;2022-12-10T14:06:04;44.88;;;27.65;;
51298;SDS011;37382;45.192;9.790;2022-12-10T14:08:35;40.67;;;26.42;;
51298;SDS011;37382;45.192;9.790;2022-12-10T14:11:10;43.70;;;28.50;;
51298;SDS011;37382;45.192;9.790;2022-12-10T14:13:49;43.58;;;27.55;;
51298;SDS011;37382;45.192;9.790;2022-12-10T14:16:21;56.35;;;27.55;;
51298;SDS011;37382;45.192;9.790;2022-12-10T14:18:59;39.00;;;25.83;;
51298;SDS011;37382;45.192;9.790;2022-12-10T14:21:32;40.58;;;26.13;;
51298;SDS011;37382;45.192;9.790;2022-12-10T14:24:25;48.40;;;29.95;;
51298;SDS011;37382;45.192;9.790;2022-12-10T14:29:52;39.33;;;23.98;;
51298;SDS011;37382;45.192;9.790;2022-12-10T14:35:06;34.58;;;21.92;;
51298;SDS011;37382;45.192;9.790;2022-12-10T14:37:40;31.88;;;21.85;;
51298;SDS011;37382;45.192;9.790;2022-12-10T14:40:23;32.85;;;22.58;;
51298;SDS011;37382;45.192;9.790;2022-12-10T14:43:19;34.17;;;23.20;;
51298;SDS011;37382;45.192;9.790;2022-12-10T14:45:51;35.42;;;22.95;;
51298;SDS011;37382;45.192;9.790;2022-12-10T14:48:23;42.42;;;26.13;;
51298;SDS011;37382;45.192;9.790;2022-12-10T14:50:51;37.72;;;24.33;;
51298;SDS011;37382;45.192;9.790;2022-12-10T14:53:22;34.83;;;23.23;;
51298;SDS011;37382;45.192;9.790;2022-12-10T14:55:56;36.30;;;25.00;;
51298;SDS011;37382;45.192;9.790;2022-12-10T15:01:27;50.75;;;32.85;;
51298;SDS011;37382;45.192;9.790;2022-12-10T15:03:58;37.53;;;24.38;;
51298;SDS011;37382;45.192;9.790;2022-12-10T15:06:28;35.08;;;23.30;;
51298;SDS011;37382;45.192;9.790;2022-12-10T15:09:03;37.15;;;25.42;;
51298;SDS011;37382;45.192;9.790;2022-12-10T15:11:33;38.42;;;25.08;;
51298;SDS011;37382;45.192;9.790;2022-12-10T15:14:01;38.85;;;26.08;;
51298;SDS011;37382;45.192;9.790;2022-12-10T15:16:31;37.50;;;25.30;;
51298;SDS011;37382;45.192;9.790;2022-12-10T15:19:20;45.47;;;26.70;;
51298;SDS011;37382;45.192;9.790;2022-12-10T15:21:51;42.25;;;27.20;;
51298;SDS011;37382;45.192;9.790;2022-12-10T15:24:35;42.10;;;27.27;;
51298;SDS011;37382;45.192;9.790;2022-12-10T15:27:14;40.92;;;27.92;;
51298;SDS011;37382;45.192;9.790;2022-12-10T15:29:51;42.72;;;28.27;;
51298;SDS011;37382;45.192;9.790;2022-12-10T15:32:20;46.72;;;29.75;;
51298;SDS011;37382;45.192;9.790;2022-12-10T15:34:55;51.42;;;33.17;;
51298;SDS011;37382;45.192;9.790;2022-12-10T15:37:26;58.83;;;34.55;;
51298;SDS011;37382;45.192;9.790;2022-12-10T15:40:01;46.22;;;31.45;;
51298;SDS011;37382;45.192;9.790;2022-12-10T15:42:42;51.83;;;32.77;;
51298;SDS011;37382;45.192;9.790;2022-12-10T15:45:22;53.10;;;33.22;;
51298;SDS011;37382;45.192;9.790;2022-12-10T15:47:57;53.15;;;33.65;;
51298;SDS011;37382;45.192;9.790;2022-12-10T15:50:25;58.13;;;35.55;;
51298;SDS011;37382;45.192;9.790;2022-12-10T15:52:53;59.45;;;38.30;;
51298;SDS011;37382;45.192;9.790;2022-12-10T15:55:21;63.13;;;39.95;;
51298;SDS011;37382;45.192;9.790;2022-12-10T15:57:48;59.60;;;38.35;;
51298;SDS011;37382;45.192;9.790;2022-12-10T16:00:18;64.18;;;40.63;;
51298;SDS011;37382;45.192;9.790;2022-12-10T16:05:20;65.93;;;41.65;;
51298;SDS011;37382;45.192;9.790;2022-12-10T16:07:50;67.40;;;42.83;;
51298;SDS011;37382;45.192;9.790;2022-12-10T16:10:22;67.25;;;42.78;;
51298;SDS011;37382;45.192;9.790;2022-12-10T16:12:58;67.07;;;42.10;;
51298;SDS011;37382;45.192;9.790;2022-12-10T16:15:29;70.40;;;43.22;;
51298;SDS011;37382;45.192;9.790;2022-12-10T16:18:03;65.20;;;41.03;;
51298;SDS011;37382;45.192;9.790;2022-12-10T16:20:32;69.35;;;42.70;;
51298;SDS011;37382;45.192;9.790;2022-12-10T16:23:00;72.57;;;45.20;;
51298;SDS011;37382;45.192;9.790;2022-12-10T16:25:30;75.57;;;46.65;;
51298;SDS011;37382;45.192;9.790;2022-12-10T16:27:59;68.57;;;43.85;;
51298;SDS011;37382;45.192;9.790;2022-12-10T16:30:37;68.78;;;44.85;;
51298;SDS011;37382;45.192;9.790;2022-12-10T16:33:15;66.07;;;41.33;;
51298;SDS011;37382;45.192;9.790;2022-12-10T16:35:47;64.65;;;40.85;;
51298;SDS011;37382;45.192;9.790;2022-12-10T16:38:16;67.03;;;41.25;;
51298;SDS011;37382;45.192;9.790;2022-12-10T16:40:44;72.32;;;44.65;;
51298;SDS011;37382;45.192;9.790;2022-12-10T16:43:23;69.15;;;41.25;;
51298;SDS011;37382;45.192;9.790;2022-12-10T16:45:52;64.78;;;39.90;;
51298;SDS011;37382;45.192;9.790;2022-12-10T16:48:20;64.18;;;38.92;;
51298;SDS011;37382;45.192;9.790;2022-12-10T16:50:49;71.15;;;43.22;;
51298;SDS011;37382;45.192;9.790;2022-12-10T16:53:25;67.63;;;41.28;;
51298;SDS011;37382;45.192;9.790;2022-12-10T16:55:55;61.67;;;38.78;;
51298;SDS011;37382;45.192;9.790;2022-12-10T16:58:24;63.65;;;38.97;;
51298;SDS011;37382;45.192;9.790;2022-12-10T17:00:53;64.80;;;38.53;;
51298;SDS011;37382;45.192;9.790;2022-12-10T17:03:23;61.20;;;37.25;;
51298;SDS011;37382;45.192;9.790;2022-12-10T17:05:54;57.85;;;36.50;;
51298;SDS011;37382;45.192;9.790;2022-12-10T17:08:30;58.70;;;36.08;;
51298;SDS011;37382;45.192;9.790;2022-12-10T17:10:58;62.38;;;37.17;;
51298;SDS011;37382;45.192;9.790;2022-12-10T17:13:45;59.50;;;36.80;;
51298;SDS011;37382;45.192;9.790;2022-12-10T17:16:13;62.15;;;37.00;;
51298;SDS011;37382;45.192;9.790;2022-12-10T17:18:46;60.70;;;36.20;;
51298;SDS011;37382;45.192;9.790;2022-12-10T17:21:13;58.67;;;35.92;;
51298;SDS011;37382;45.192;9.790;2022-12-10T17:23:41;63.45;;;36.35;;
51298;SDS011;37382;45.192;9.790;2022-12-10T17:26:11;62.58;;;37.50;;
51298;SDS011;37382;45.192;9.790;2022-12-10T17:28:52;64.15;;;37.90;;
51298;SDS011;37382;45.192;9.790;2022-12-10T17:31:21;88.05;;;48.58;;
51298;SDS011;37382;45.192;9.790;2022-12-10T17:33:49;71.90;;;42.00;;
51298;SDS011;37382;45.192;9.790;2022-12-10T17:36:18;61.72;;;37.35;;
51298;SDS011;37382;45.192;9.790;2022-12-10T17:38:46;52.70;;;32.65;;
51298;SDS011;37382;45.192;9.790;2022-12-10T17:41:13;49.53;;;30.88;;
51298;SDS011;37382;45.192;9.790;2022-12-10T17:43:43;45.03;;;28.60;;
51298;SDS011;37382;45.192;9.790;2022-12-10T17:46:11;45.42;;;28.67;;
51298;SDS011;37382;45.192;9.790;2022-12-10T17:48:39;44.63;;;28.92;;
51298;SDS011;37382;45.192;9.790;2022-12-10T17:51:08;45.53;;;29.40;;
51298;SDS011;37382;45.192;9.790;2022-12-10T17:53:38;47.75;;;29.25;;
51298;SDS011;37382;45.192;9.790;2022-12-10T17:56:14;44.83;;;28.63;;
51298;SDS011;37382;45.192;9.790;2022-12-10T17:58:43;46.92;;;30.33;;
51298;SDS011;37382;45.192;9.790;2022-12-10T18:01:11;44.70;;;29.27;;
51298;SDS011;37382;45.192;9.790;2022-12-10T18:03:39;44.88;;;29.40;;
51298;SDS011;37382;45.192;9.790;2022-12-10T18:08:41;43.42;;;29.27;;
51298;SDS011;37382;45.192;9.790;2022-12-10T18:11:13;51.00;;;29.80;;
51298;SDS011;37382;45.192;9.790;2022-12-10T18:13:43;42.85;;;28.35;;
51298;SDS011;37382;45.192;9.790;2022-12-10T18:16:20;51.55;;;30.83;;
51298;SDS011;37382;45.192;9.790;2022-12-10T18:18:54;50.15;;;30.95;;
51298;SDS011;37382;45.192;9.790;2022-12-10T18:21:24;47.53;;;29.83;;
51298;SDS011;37382;45.192;9.790;2022-12-10T18:23:52;45.22;;;28.15;;
51298;SDS011;37382;45.192;9.790;2022-12-10T18:26:20;46.42;;;29.70;;
51298;SDS011;37382;45.192;9.790;2022-12-10T18:28:53;43.80;;;27.60;;
51298;SDS011;37382;45.192;9.790;2022-12-10T18:31:28;45.45;;;27.90;;
51298;SDS011;37382;45.192;9.790;2022-12-10T18:34:04;55.30;;;31.08;;
51298;SDS011;37382;45.192;9.790;2022-12-10T18:36:36;46.92;;;29.50;;
51298;SDS011;37382;45.192;9.790;2022-12-10T18:39:06;52.90;;;32.05;;
51298;SDS011;37382;45.192;9.790;2022-12-10T18:41:47;52.22;;;32.10;;
51298;SDS011;37382;45.192;9.790;2022-12-10T18:44:16;53.50;;;31.10;;
51298;SDS011;37382;45.192;9.790;2022-12-10T18:46:48;49.28;;;31.10;;
51298;SDS011;37382;45.192;9.790;2022-12-10T18:49:16;48.28;;;29.23;;
51298;SDS011;37382;45.192;9.790;2022-12-10T18:51:45;46.90;;;29.10;;
51298;SDS011;37382;45.192;9.790;2022-12-10T18:54:13;46.10;;;29.27;;
51298;SDS011;37382;45.192;9.790;2022-12-10T18:56:41;50.55;;;30.98;;
51298;SDS011;37382;45.192;9.790;2022-12-10T18:59:11;52.97;;;30.65;;
51298;SDS011;37382;45.192;9.790;2022-12-10T19:01:41;55.95;;;31.63;;
51298;SDS011;37382;45.192;9.790;2022-12-10T19:04:09;52.40;;;31.75;;
51298;SDS011;37382;45.192;9.790;2022-12-10T19:06:36;67.53;;;37.17;;
51298;SDS011;37382;45.192;9.790;2022-12-10T19:09:05;62.80;;;33.30;;
51298;SDS011;37382;45.192;9.790;2022-12-10T19:11:45;72.80;;;35.50;;
51298;SDS011;37382;45.192;9.790;2022-12-10T19:14:14;64.97;;;34.85;;
51298;SDS011;37382;45.192;9.790;2022-12-10T19:16:42;63.58;;;33.65;;
51298;SDS011;37382;45.192;9.790;2022-12-10T19:19:13;60.58;;;33.97;;
51298;SDS011;37382;45.192;9.790;2022-12-10T19:21:44;62.03;;;33.17;;
51298;SDS011;37382;45.192;9.790;2022-12-10T19:24:11;70.60;;;35.13;;
51298;SDS011;37382;45.192;9.790;2022-12-10T19:26:40;65.47;;;33.35;;
51298;SDS011;37382;45.192;9.790;2022-12-10T19:29:13;63.30;;;30.58;;
51298;SDS011;37382;45.192;9.790;2022-12-10T19:31:41;68.25;;;32.65;;
51298;SDS011;37382;45.192;9.790;2022-12-10T19:34:09;67.95;;;31.48;;
51298;SDS011;37382;45.192;9.790;2022-12-10T19:36:37;73.65;;;31.65;;
51298;SDS011;37382;45.192;9.790;2022-12-10T19:39:09;70.85;;;32.63;;
51298;SDS011;37382;45.192;9.790;2022-12-10T19:41:42;86.22;;;37.20;;
51298;SDS011;37382;45.192;9.790;2022-12-10T19:44:10;83.88;;;36.90;;
51298;SDS011;37382;45.192;9.790;2022-12-10T19:46:38;72.18;;;34.33;;
51298;SDS011;37382;45.192;9.790;2022-12-10T19:49:09;79.07;;;36.60;;
51298;SDS011;37382;45.192;9.790;2022-12-10T19:51:38;88.03;;;40.00;;
51298;SDS011;37382;45.192;9.790;2022-12-10T19:54:05;84.25;;;39.35;;
51298;SDS011;37382;45.192;9.790;2022-12-10T19:56:33;83.43;;;38.75;;
51298;SDS011;37382;45.192;9.790;2022-12-10T19:59:02;93.13;;;42.33;;
51298;SDS011;37382;45.192;9.790;2022-12-10T20:01:40;77.30;;;36.67;;
51298;SDS011;37382;45.192;9.790;2022-12-10T20:04:08;67.60;;;33.00;;
51298;SDS011;37382;45.192;9.790;2022-12-10T20:06:37;77.35;;;34.25;;
51298;SDS011;37382;45.192;9.790;2022-12-10T20:09:12;77.60;;;35.53;;
51298;SDS011;37382;45.192;9.790;2022-12-10T20:11:47;74.82;;;35.15;;
51298;SDS011;37382;45.192;9.790;2022-12-10T20:14:16;83.57;;;36.53;;
51298;SDS011;37382;45.192;9.790;2022-12-10T20:16:44;81.15;;;35.22;;
51298;SDS011;37382;45.192;9.790;2022-12-10T20:19:14;77.70;;;34.30;;
51298;SDS011;37382;45.192;9.790;2022-12-10T20:21:44;73.88;;;34.78;;
51298;SDS011;37382;45.192;9.790;2022-12-10T20:24:11;79.78;;;34.25;;
51298;SDS011;37382;45.192;9.790;2022-12-10T20:26:41;80.20;;;36.13;;
51298;SDS011;37382;45.192;9.790;2022-12-10T20:29:14;72.43;;;33.33;;
51298;SDS011;37382;45.192;9.790;2022-12-10T20:31:46;72.68;;;35.42;;
51298;SDS011;37382;45.192;9.790;2022-12-10T20:34:14;82.32;;;35.13;;
51298;SDS011;37382;45.192;9.790;2022-12-10T20:36:43;90.72;;;35.08;;
51298;SDS011;37382;45.192;9.790;2022-12-10T20:39:15;90.00;;;37.25;;
51298;SDS011;37382;45.192;9.790;2022-12-10T20:41:49;79.60;;;34.50;;
51298;SDS011;37382;45.192;9.790;2022-12-10T20:44:18;80.55;;;35.92;;
51298;SDS011;37382;45.192;9.790;2022-12-10T20:46:46;79.40;;;35.72;;
51298;SDS011;37382;45.192;9.790;2022-12-10T20:49:15;72.10;;;34.20;;
51298;SDS011;37382;45.192;9.790;2022-12-10T20:51:44;69.57;;;32.97;;
51298;SDS011;37382;45.192;9.790;2022-12-10T20:54:13;73.85;;;35.28;;
51298;SDS011;37382;45.192;9.790;2022-12-10T20:56:40;79.90;;;36.20;;
51298;SDS011;37382;45.192;9.790;2022-12-10T20:59:09;78.53;;;35.42;;
51298;SDS011;37382;45.192;9.790;2022-12-10T21:01:39;84.72;;;36.35;;
51298;SDS011;37382;45.192;9.790;2022-12-10T21:04:07;78.78;;;34.78;;
51298;SDS011;37382;45.192;9.790;2022-12-10T21:06:34;87.90;;;38.85;;
51298;SDS011;37382;45.192;9.790;2022-12-10T21:09:02;97.28;;;41.03;;
51298;SDS011;37382;45.192;9.790;2022-12-10T21:11:30;86.85;;;38.88;;
51298;SDS011;37382;45.192;9.790;2022-12-10T21:13:58;88.30;;;37.78;;
51298;SDS011;37382;45.192;9.790;2022-12-10T21:16:26;85.95;;;36.60;;
51298;SDS011;37382;45.192;9.790;2022-12-10T21:18:54;79.93;;;35.67;;
51298;SDS011;37382;45.192;9.790;2022-12-10T21:21:22;79.60;;;34.17;;
51298;SDS011;37382;45.192;9.790;2022-12-10T21:23:51;79.95;;;34.40;;
51298;SDS011;37382;45.192;9.790;2022-12-10T21:26:19;75.00;;;33.88;;
51298;SDS011;37382;45.192;9.790;2022-12-10T21:28:46;83.65;;;34.88;;
51298;SDS011;37382;45.192;9.790;2022-12-10T21:31:18;77.35;;;32.33;;
51298;SDS011;37382;45.192;9.790;2022-12-10T21:33:50;73.95;;;34.13;;
51298;SDS011;37382;45.192;9.790;2022-12-10T21:36:19;76.30;;;33.42;;
51298;SDS011;37382;45.192;9.790;2022-12-10T21:38:48;68.45;;;32.97;;
51298;SDS011;37382;45.192;9.790;2022-12-10T21:41:21;69.05;;;31.73;;
51298;SDS011;37382;45.192;9.790;2022-12-10T21:44:09;68.00;;;32.83;;
51298;SDS011;37382;45.192;9.790;2022-12-10T21:46:38;66.15;;;32.33;;
51298;SDS011;37382;45.192;9.790;2022-12-10T21:49:07;64.18;;;31.17;;
51298;SDS011;37382;45.192;9.790;2022-12-10T21:51:37;61.97;;;30.88;;
51298;SDS011;37382;45.192;9.790;2022-12-10T21:54:06;66.22;;;32.42;;
51298;SDS011;37382;45.192;9.790;2022-12-10T21:56:35;62.25;;;31.92;;
51298;SDS011;37382;45.192;9.790;2022-12-10T21:59:03;61.70;;;31.00;;